Map

Track Data

SID SEASON NUMBER BASIN SUBBASIN NAME ISO_TIME NATURE LAT LON WMO_WIND WMO_PRES WMO_AGENCY TRACK_TYPE DIST2LAND LANDFALL IFLAG USA_AGENCY USA_ATCF_ID USA_LAT USA_LON USA_RECORD USA_STATUS USA_WIND USA_PRES USA_SSHS USA_R34_NE USA_R34_SE USA_R34_SW USA_R34_NW USA_R50_NE USA_R50_SE USA_R50_SW USA_R50_NW USA_R64_NE USA_R64_SE USA_R64_SW USA_R64_NW USA_POCI USA_ROCI USA_RMW USA_EYE TOKYO_LAT TOKYO_LON TOKYO_GRADE TOKYO_WIND TOKYO_PRES TOKYO_R50_DIR TOKYO_R50_LONG TOKYO_R50_SHORT TOKYO_R30_DIR TOKYO_R30_LONG TOKYO_R30_SHORT TOKYO_LAND CMA_LAT CMA_LON CMA_CAT CMA_WIND CMA_PRES HKO_LAT HKO_LON HKO_CAT HKO_WIND HKO_PRES NEWDELHI_LAT NEWDELHI_LON NEWDELHI_GRADE NEWDELHI_WIND NEWDELHI_PRES NEWDELHI_CI NEWDELHI_DP NEWDELHI_POCI REUNION_LAT REUNION_LON REUNION_TYPE REUNION_WIND REUNION_PRES REUNION_TNUM REUNION_CI REUNION_RMW REUNION_R34_NE REUNION_R34_SE REUNION_R34_SW REUNION_R34_NW REUNION_R50_NE REUNION_R50_SE REUNION_R50_SW REUNION_R50_NW REUNION_R64_NE REUNION_R64_SE REUNION_R64_SW REUNION_R64_NW BOM_LAT BOM_LON BOM_TYPE BOM_WIND BOM_PRES BOM_TNUM BOM_CI BOM_RMW BOM_R34_NE BOM_R34_SE BOM_R34_SW BOM_R34_NW BOM_R50_NE BOM_R50_SE BOM_R50_SW BOM_R50_NW BOM_R64_NE BOM_R64_SE BOM_R64_SW BOM_R64_NW BOM_ROCI BOM_POCI BOM_EYE BOM_POS_METHOD BOM_PRES_METHOD NADI_LAT NADI_LON NADI_CAT NADI_WIND NADI_PRES WELLINGTON_LAT WELLINGTON_LON WELLINGTON_WIND WELLINGTON_PRES DS824_LAT DS824_LON DS824_STAGE DS824_WIND DS824_PRES TD9636_LAT TD9636_LON TD9636_STAGE TD9636_WIND TD9636_PRES TD9635_LAT TD9635_LON TD9635_WIND TD9635_PRES TD9635_ROCI NEUMANN_LAT NEUMANN_LON NEUMANN_CLASS NEUMANN_WIND NEUMANN_PRES MLC_LAT MLC_LON MLC_CLASS MLC_WIND MLC_PRES USA_GUST BOM_GUST BOM_GUST_PER REUNION_GUST REUNION_GUST_PER USA_SEAHGT USA_SEARAD_NE USA_SEARAD_SE USA_SEARAD_SW USA_SEARAD_NW STORM_SPEED STORM_DIR
2008356S14138 2009 100 SP EA NOT_NAMED 2008-12-21 00:00:00 NR -13.7000 138.300 25 1004 bom main 151 129 ______O_______ -5 -13.7000 138.300 20 25 1004 1.00000 1.00000 1008 3 5 45 45 4 226
2008356S14138 2009 100 SP EA NOT_NAMED 2008-12-21 03:00:00 NR -13.8500 138.135 main 126 112 ______P_______ -5 -13.8500 138.135 20 25 1003 1007 4 224
2008356S14138 2009 100 SP EA NOT_NAMED 2008-12-21 06:00:00 NR -14.0000 138.000 25 1002 bom main 112 99 ______O_______ -5 -14.0000 138.000 20 25 1002 1.00000 1.00000 1006 3 5 45 45 4 216
2008356S14138 2009 100 SP EA NOT_NAMED 2008-12-21 09:00:00 NR -14.1500 137.907 main 99 86 ______P_______ -5 -14.1500 137.907 20 25 1003 1007 4 213
2008356S14138 2009 100 SP EA NOT_NAMED 2008-12-21 12:00:00 NR -14.3000 137.800 25 1004 bom main 86 65 ______O_______ -5 -14.3000 137.800 20 25 1004 1.00000 1.00000 1008 3 5 45 45 4 223
2008356S14138 2009 100 SP EA NOT_NAMED 2008-12-21 15:00:00 NR -14.4650 137.608 main 68 54 ______P_______ -5 -14.4650 137.608 20 25 1003 1008 5 232
2008356S14138 2009 100 SP EA NOT_NAMED 2008-12-21 18:00:00 NR -14.6000 137.400 25 1003 bom main 54 46 ______O_______ -5 -14.6000 137.400 20 25 1003 1.50000 1.50000 1008 3 5 45 45 4 239
2008356S14138 2009 100 SP EA NOT_NAMED 2008-12-21 21:00:00 NR -14.6649 137.265 main 55 46 ______P_______ -5 -14.6649 137.265 20 27 1002 1008 3 251
2008356S14138 2009 100 SP EA NOT_NAMED 2008-12-22 00:00:00 NR -14.7000 137.100 30 1002 bom main 46 44 ______O_______ -5 -14.7000 137.100 20 30 1002 2.00000 2.00000 1008 5 45 45 4 256
2008356S14138 2009 100 SP EA NOT_NAMED 2008-12-22 03:00:00 NR -14.7650 136.838 main 55 55 ______P_______ -5 -14.7650 136.838 20 30 1001 1007 6 260
2008356S14138 2009 100 SP EA NOT_NAMED 2008-12-22 06:00:00 NR -14.8000 136.500 30 1000 bom main 57 54 ______O_______ -5 -14.8000 136.500 20 30 1000 2.00000 2.00000 1006 3 5 45 45 7 270
2008356S14138 2009 100 SP EA NOT_NAMED 2008-12-22 09:00:00 NR -14.7650 136.107 main 54 21 ______P_______ -5 -14.7650 136.107 20 30 1000 1006 8 277
2008356S14138 2009 100 SP EA NOT_NAMED 2008-12-22 12:00:00 NR -14.7000 135.700 30 1000 bom main 21 0 ______O_______ -5 -14.7000 135.700 20 30 1000 1.50000 2.00000 1006 3 5 45 45 8 279
2008356S14138 2009 100 SP EA NOT_NAMED 2008-12-22 15:00:00 NR -14.6424 135.335 main 0 0 ______P_______ -5 -14.6424 135.335 20 30 999 1006 7 278
2008356S14138 2009 100 SP EA NOT_NAMED 2008-12-22 18:00:00 NR -14.6000 135.000 30 998 bom main 0 0 ______O_______ -5 -14.6000 135.000 20 30 998 1007 3 7 45 45 6 275
2008356S14138 2009 100 SI WA NOT_NAMED 2008-12-22 21:00:00 NR -14.5925 134.685 main 0 0 ______P_______ -5 -14.5925 134.685 20 30 998 1007 6 270
2008356S14138 2009 100 SI WA NOT_NAMED 2008-12-23 00:00:00 NR -14.6000 134.400 30 998 bom main 0 0 ______O_______ -5 -14.6000 134.400 20 30 998 1008 6 7 45 45 5 271
2008356S14138 2009 100 SI WA NOT_NAMED 2008-12-23 03:00:00 NR -14.5849 134.150 main 0 0 ______P_______ -5 -14.5849 134.150 20 27 998 1007 5 270
2008356S14138 2009 100 SI WA NOT_NAMED 2008-12-23 06:00:00 NR -14.6000 133.900 25 998 bom main 0 0 ______O_______ -5 -14.6000 133.900 20 25 998 1006 6 7 45 45 5 261
2008356S14138 2009 100 SI WA NOT_NAMED 2008-12-23 09:00:00 NR -14.6625 133.615 main 0 0 ______P_______ -5 -14.6625 133.615 20 25 999 1007 6 251
2008356S14138 2009 100 SI WA NOT_NAMED 2008-12-23 12:00:00 NR -14.8000 133.300 25 1000 bom main 0 0 ______O_______ -5 -14.8000 133.300 20 25 1000 1008 6 7 45 45 7 240
2008356S14138 2009 100 SI WA NOT_NAMED 2008-12-23 15:00:00 NR -15.0350 132.950 main 0 0 ______P_______ -5 -15.0350 132.950 20 25 1000 1008 8 234
2008356S14138 2009 100 SI WA NOT_NAMED 2008-12-23 18:00:00 NR -15.3000 132.600 25 1000 bom main 0 0 ______O_______ -5 -15.3000 132.600 20 25 1000 1008 6 7 45 45 8 233
2008356S14138 2009 100 SI WA NOT_NAMED 2008-12-23 21:00:00 NR -15.4999 132.300 main 0 0 ______P_______ -5 -15.4999 132.300 20 25 1001 1008 7 235
2008356S14138 2009 100 SI WA NOT_NAMED 2008-12-24 00:00:00 NR -15.7000 132.000 25 1002 bom main 0 0 ______O_______ -5 -15.7000 132.000 20 25 1002 1008 6 7 40 40 8 233
2008356S14138 2009 100 SI WA NOT_NAMED 2008-12-24 03:00:00 NR -15.9649 131.665 main 0 0 ______P_______ -5 -15.9649 131.665 20 22 1001 1007 8 233
2008356S14138 2009 100 SI WA NOT_NAMED 2008-12-24 06:00:00 NR -16.2000 131.300 20 1000 bom main 0 0 ______O_______ -5 -16.2000 131.300 20 20 1000 1006 6 7 40 40 8 243
2008356S14138 2009 100 SI WA NOT_NAMED 2008-12-24 09:00:00 NR -16.3299 130.922 main 0 0 ______P_______ -5 -16.3299 130.922 20 17 1001 1007 8 255
2008356S14138 2009 100 SI WA NOT_NAMED 2008-12-24 12:00:00 NR -16.4000 130.500 15 1002 bom main 0 0 ______O_______ -5 -16.4000 130.500 20 15 1002 1008 7 34 34 9 264
2008356S14138 2009 100 SI WA NOT_NAMED 2008-12-24 15:00:00 NR -16.4276 130.000 main 0 0 ______P_______ -5 -16.4276 130.000 20 12 1002 1008 10 264
2008356S14138 2009 100 SI WA NOT_NAMED 2008-12-24 18:00:00 NR -16.5000 129.500 10 1002 bom main 0 0 ______O_______ -5 -16.5000 129.500 20 10 1002 1008 7 34 34 9 252
2008356S14138 2009 100 SI WA NOT_NAMED 2008-12-24 21:00:00 NR -16.7075 129.075 main 0 0 ______P_______ -5 -16.7075 129.075 20 10 1003 1008 9 237
2008356S14138 2009 100 SI WA NOT_NAMED 2008-12-25 00:00:00 NR -17.0000 128.700 10 1004 bom main 0 ______O_______ -5 -17.0000 128.700 20 10 1004 1008 7 34 34 9 231

Digital Typhoon Data and Search

About IBTrACS Database

This database is a web-friendly format of International Best Track Archive for Climate Stewardship (IBTrACS), a global best track data archive curated by NOAA dating back to 1842.

Updated: 2022-11-16